Penticton Airport

CYYF · 不列颠哥伦比亚, 加拿大

罗盘
风向 的 Penticton Airport 16/34
风: 0 kt, 0 beaufort


改变
0 ft 2.000 4.000 6.000 8.000 10.000
Cloud Cloud
FEW 8.000
METAR CYYF 240400Z 00000KT 15SM FEW080 18/02 A2991 RMK CU1 SLP126 DENSITY ALT 1800FT

METAR Penticton Airport - CYYF/YYF

Penticton Airport是,加拿大中的中型机场。 该机场位于纬度49,46247和经度-119,60231。 该机场有一条跑道: 16/34. 本场的ICAO机场代码为CYYF。 该机场的本地机场标识(FAA LID)为CYYF。 该机场的IATA代码为YYF。 机场在Vancouver FIR中。

该航空气象观测是针对Penticton Airport在2024年6月23日 21:00, 当地时间进行的。

机场观察

可变方向的风很小或没有风。

可见度为15 mi。

有几云在8.000 ft的高度。 没有观察到天花板。

温度和风寒是18 °C。 露点为2 °C,相对湿度为34%。 海平面上的气压为29,91 inHg (QNH)。

白天

今天,太阳从04:52升起,在21:09降落。 这适用于Penticton Airport,世界夏令时可能有所不同。 当地时间与世界标准时间之间的时差为-7 小时。 夏令时目前正在进行中。

公司介绍

我们没有关于这个机场的公司信息。

体会

到Vliegles.nl去找飞行课程,跳伞和其他飞行体验。 浏览页面,了解Penticton Airport附近所有可用的活动。 你也可以使用搜索功能来寻找你所在地附近的特定飞行课程、跳伞或其他飞行体验。

跑道

Id 标题 侧风 逆风 侧风 %
16/34 181°-001°

逆风成分最大的方向会被突出显示,并用于横风计算。 这并不一定意味着这个方向在使用。

乌云

8.000 ft FEW 几云

温度 & 天气

温度 18 °C
露点 2 °C
相对湿度 34%
Kp-index 1 (0-9)

评论

SLP126海平面压力为29,90 inHg (29,90 inHg)
CU1 DENSITY ALT 1800FT

白天

日出
04:52 (7:07)
中午
13:01
日落
21:09

小工具

你想在你的网站上有一个关于Penticton Airport的当前航空天气(METAR)的小部件吗?

显示HTML代码
报告变更